Time;durP1;ratioP1;P1;durP2;ratioP2;P2;SDS_P1;SDS_P2;PMS_P1;PMS_P2;Temp;Humidity;BMP_temperature;BMP_pressure;BME280_temperature;BME280_humidity;BME280_pressure;Samples;Min_cycle;Max_cycle;Signal;HPM_P1;HPM_P2
2022/05/02 00:00:42;;;;;;;;;;;;;;;12.86;64.13;99980.56;4970245;28;20320;-88
2022/05/02 00:03:09;;;;;;;;;;;;;;;12.71;64.99;99979.97;4971138;28;20309;-87
2022/05/02 00:05:34;;;;;;;;;;;;;;;12.94;64.23;99977.75;4970052;28;19922;-87
2022/05/02 00:07:59;;;;;;;;;;;;;;;13.06;64.05;99977.50;4959122;28;19929;-89
2022/05/02 00:10:25;;;;;;;;;;;;;;;13.14;63.58;99980.84;4970396;28;19918;-88
2022/05/02 00:12:50;;;;;;;;;;;;;;;13.18;63.50;99979.03;4971169;28;19925;-88
2022/05/02 00:15:16;;;;;;;;;;;;;;;13.11;63.51;99972.97;4969230;28;20304;-88
2022/05/02 00:17:56;;;;;;;;;;;;;;;13.08;63.45;99976.59;4970220;28;19922;-88
2022/05/02 00:20:22;;;;;;;;;;;;;;;12.97;64.08;99967.97;4968832;28;20281;-88
2022/05/02 00:22:47;;;;;;;;;;;;;;;12.96;64.20;99974.19;4970407;28;19941;-88
2022/05/02 00:25:13;;;;;;;;;;;;;;;13.03;63.71;99973.13;4970008;28;19962;-88
2022/05/02 00:27:38;;;;;;;;;;;;;;;12.97;64.06;99965.31;4968502;28;19922;-88
2022/05/02 00:30:04;;;;;;;;;;;;;;;12.90;64.19;99967.22;4969484;28;19918;-88
2022/05/02 00:32:30;;;;;;;;;;;;;;;12.89;63.92;99961.97;4970050;28;19914;-89
2022/05/02 00:34:55;;;;;;;;;;;;;;;12.88;63.60;99955.81;4969713;28;19918;-89
2022/05/02 00:37:20;;;;;;;;;;;;;;;12.77;63.63;99956.91;4967115;28;19921;-88
2022/05/02 00:39:46;;;;;;;;;;;;;;;12.80;63.36;99947.13;4968843;28;20483;-88
2022/05/02 00:42:11;;;;;;;;;;;;;;;12.68;64.10;99944.72;4968528;28;19922;-88
2022/05/02 00:44:40;;;;;;;;;;;;;;;12.75;63.79;99954.28;4969257;28;19929;-89
2022/05/02 00:47:05;;;;;;;;;;;;;;;12.74;63.71;99954.31;4969258;28;19922;-89
2022/05/02 00:49:31;;;;;;;;;;;;;;;12.82;63.71;99947.97;4967183;28;19980;-89
2022/05/02 00:51:56;;;;;;;;;;;;;;;12.76;63.70;99952.50;4969682;28;20004;-87
2022/05/02 00:54:21;;;;;;;;;;;;;;;12.74;64.06;99949.03;4968969;28;20671;-88
2022/05/02 00:56:47;;;;;;;;;;;;;;;12.68;64.14;99950.91;4964928;28;19945;-88
2022/05/02 00:59:14;;;;;;;;;;;;;;;12.69;63.92;99957.91;4960629;28;20300;-88
2022/05/02 01:01:40;;;;;;;;;;;;;;;12.65;64.05;99948.31;4969767;28;19960;-89
2022/05/02 01:04:06;;;;;;;;;;;;;;;12.67;64.59;99956.22;4968992;28;19925;-89
2022/05/02 01:09:15;;;;;;;;;;;;;;;12.50;64.68;99956.56;4968915;28;19928;-89
2022/05/02 01:11:40;;;;;;;;;;;;;;;12.42;65.05;99959.34;4969133;28;19921;-89
2022/05/02 01:14:08;;;;;;;;;;;;;;;12.48;65.28;99953.94;4969436;28;20001;-89
2022/05/02 01:16:34;;;;;;;;;;;;;;;12.47;65.16;99954.81;4969177;28;19929;-88
2022/05/02 01:18:59;;;;;;;;;;;;;;;12.48;65.20;99951.28;4969813;28;19949;-88
2022/05/02 01:21:26;;;;;;;;;;;;;;;12.43;65.28;99945.19;4969847;28;19917;-88
2022/05/02 01:23:52;;;;;;;;;;;;;;;12.37;65.29;99950.59;4969176;28;19922;-88
2022/05/02 01:26:18;;;;;;;;;;;;;;;12.41;65.32;99947.00;4967986;28;19976;-89
2022/05/02 01:28:44;;;;;;;;;;;;;;;12.42;65.31;99954.03;4969401;28;19954;-89
2022/05/02 01:31:09;;;;;;;;;;;;;;;12.38;65.54;99941.78;4969299;28;19925;-89
2022/05/02 01:33:35;;;;;;;;;;;;;;;12.32;65.70;99942.75;4969268;28;19918;-89
2022/05/02 01:36:01;;;;;;;;;;;;;;;12.29;65.75;99941.94;4964260;28;19929;-89
2022/05/02 01:38:26;;;;;;;;;;;;;;;12.15;66.12;99937.75;4969371;28;19921;-90
2022/05/02 01:40:51;;;;;;;;;;;;;;;12.12;66.55;99935.16;4969024;28;19918;-89
2022/05/02 01:43:18;;;;;;;;;;;;;;;12.12;65.99;99937.81;4969036;28;19944;-88
2022/05/02 01:45:43;;;;;;;;;;;;;;;12.11;66.40;99932.53;4968099;28;20452;-87
2022/05/02 01:48:08;;;;;;;;;;;;;;;12.10;66.29;99930.81;4969454;28;19920;-88
2022/05/02 01:50:34;;;;;;;;;;;;;;;12.10;66.36;99923.75;4971201;28;19924;-87
2022/05/02 01:52:59;;;;;;;;;;;;;;;12.14;66.17;99921.91;4970478;28;19941;-86
2022/05/02 01:55:24;;;;;;;;;;;;;;;12.08;66.13;99916.72;4970656;28;21169;-86
2022/05/02 01:57:49;;;;;;;;;;;;;;;12.04;66.06;99907.13;4968372;28;19929;-87
2022/05/02 02:00:15;;;;;;;;;;;;;;;12.04;66.48;99904.50;4974903;28;19929;-85
2022/05/02 02:02:40;;;;;;;;;;;;;;;12.02;66.77;99904.50;4984174;28;19945;-84
2022/05/02 02:07:50;;;;;;;;;;;;;;;11.99;66.26;99897.50;4988413;28;19921;-87
2022/05/02 02:10:15;;;;;;;;;;;;;;;11.86;66.56;99893.28;4968404;28;19918;-87
2022/05/02 02:12:40;;;;;;;;;;;;;;;11.87;66.77;99897.69;4968362;28;19929;-87
2022/05/02 02:15:06;;;;;;;;;;;;;;;11.87;66.68;99880.97;4967623;28;20131;-87
2022/05/02 02:17:31;;;;;;;;;;;;;;;11.76;67.30;99887.28;4968415;28;19945;-87
2022/05/02 02:19:57;;;;;;;;;;;;;;;11.73;66.95;99887.34;4968484;28;20651;-87
2022/05/02 02:22:22;;;;;;;;;;;;;;;11.48;67.37;99884.22;4966740;28;20400;-87
2022/05/02 02:24:48;;;;;;;;;;;;;;;11.45;67.27;99877.22;4967939;28;19929;-86
2022/05/02 02:27:13;;;;;;;;;;;;;;;11.39;67.41;99877.31;4968454;28;20006;-87
2022/05/02 02:29:39;;;;;;;;;;;;;;;11.54;66.89;99872.66;4967141;28;19922;-87
2022/05/02 02:32:04;;;;;;;;;;;;;;;11.40;66.88;99871.16;4968496;28;19918;-87
2022/05/02 02:34:30;;;;;;;;;;;;;;;11.16;68.17;99876.78;4968746;28;20041;-87
2022/05/02 02:36:55;;;;;;;;;;;;;;;11.01;68.17;99869.94;4967447;28;19922;-87
2022/05/02 02:39:21;;;;;;;;;;;;;;;11.09;68.06;99876.88;4968190;28;20017;-87
2022/05/02 02:41:46;;;;;;;;;;;;;;;11.13;67.92;99874.19;4968154;28;20016;-86
2022/05/02 02:44:11;;;;;;;;;;;;;;;11.06;67.95;99879.56;4967751;28;19965;-87
2022/05/02 02:46:36;;;;;;;;;;;;;;;11.24;67.49;99880.19;4967588;28;19981;-87
2022/05/02 02:49:02;;;;;;;;;;;;;;;11.26;67.14;99876.63;4966229;28;19965;-87
2022/05/02 02:51:27;;;;;;;;;;;;;;;11.23;67.13;99878.44;4968971;28;19914;-89
2022/05/02 02:53:52;;;;;;;;;;;;;;;11.25;66.93;99881.94;4971663;28;19922;-88
2022/05/02 02:56:18;;;;;;;;;;;;;;;11.08;67.44;99880.41;4971658;28;19918;-87
2022/05/02 02:58:43;;;;;;;;;;;;;;;11.06;67.69;99890.13;4971030;28;19922;-87
2022/05/02 03:01:08;;;;;;;;;;;;;;;11.00;68.54;99899.88;4968497;28;19929;-87
2022/05/02 03:03:34;;;;;;;;;;;;;;;10.99;68.56;99891.09;4971143;28;20335;-87
2022/05/02 03:06:02;;;;;;;;;;;;;;;10.94;67.76;99890.28;4970893;28;19922;-87
2022/05/02 03:08:28;;;;;;;;;;;;;;;10.74;68.69;99891.41;4971590;28;20001;-88
2022/05/02 03:10:55;;;;;;;;;;;;;;;10.75;69.02;99893.16;4971822;28;20286;-88
2022/05/02 03:13:20;;;;;;;;;;;;;;;10.48;69.76;99890.84;4971293;28;19974;-88
2022/05/02 03:15:46;;;;;;;;;;;;;;;10.51;70.03;99888.19;4971422;28;21226;-89
2022/05/02 03:18:11;;;;;;;;;;;;;;;10.23;70.62;99885.81;4971109;28;20734;-88
2022/05/02 03:20:36;;;;;;;;;;;;;;;10.19;71.15;99894.63;4970408;28;20518;-89
2022/05/02 03:23:01;;;;;;;;;;;;;;;10.06;71.06;99891.25;4971404;28;19980;-87
2022/05/02 03:25:27;;;;;;;;;;;;;;;10.17;70.94;99889.38;4971632;28;19922;-89
2022/05/02 03:27:52;;;;;;;;;;;;;;;10.23;70.62;99893.72;4971230;28;19928;-88
2022/05/02 03:30:17;;;;;;;;;;;;;;;10.25;69.86;99899.00;4971508;28;19965;-87
2022/05/02 03:32:43;;;;;;;;;;;;;;;10.15;71.17;99901.72;4969888;28;19964;-88
2022/05/02 03:35:09;;;;;;;;;;;;;;;10.33;70.31;99903.34;4971112;28;20012;-88
2022/05/02 03:37:34;;;;;;;;;;;;;;;10.43;70.24;99896.19;4971478;28;20020;-86
2022/05/02 03:39:59;;;;;;;;;;;;;;;10.36;71.04;99897.13;4971572;28;20371;-87
2022/05/02 03:42:25;;;;;;;;;;;;;;;10.44;70.64;99897.94;4970964;28;19922;-88
2022/05/02 03:44:51;;;;;;;;;;;;;;;10.43;70.67;99890.03;4969689;28;19914;-88
2022/05/02 03:47:17;;;;;;;;;;;;;;;10.40;70.22;99896.22;4971091;28;19957;-88
2022/05/02 03:49:43;;;;;;;;;;;;;;;10.36;70.82;99891.84;4970934;28;20019;-89
2022/05/02 03:52:08;;;;;;;;;;;;;;;10.55;70.42;99896.03;4970598;28;19925;-88
2022/05/02 03:54:34;;;;;;;;;;;;;;;10.63;70.42;99903.88;4969580;28;20360;-89
2022/05/02 03:56:59;;;;;;;;;;;;;;;10.69;70.37;99892.34;4970546;28;19922;-89
2022/05/02 03:59:25;;;;;;;;;;;;;;;10.72;70.66;99887.03;4969160;28;19928;-87
2022/05/02 04:01:50;;;;;;;;;;;;;;;10.84;70.02;99889.50;4969854;28;19957;-84
2022/05/02 04:04:16;;;;;;;;;;;;;;;11.09;69.70;99886.53;4969559;28;20013;-87
2022/05/02 04:06:41;;;;;;;;;;;;;;;11.24;68.91;99886.31;4968418;28;19925;-87
2022/05/02 04:09:06;;;;;;;;;;;;;;;11.45;68.42;99873.72;4970180;28;19929;-87
2022/05/02 04:11:32;;;;;;;;;;;;;;;11.53;68.68;99866.53;4969896;28;19922;-89
2022/05/02 04:13:57;;;;;;;;;;;;;;;11.52;68.56;99870.06;4970082;28;20331;-87
2022/05/02 04:16:23;;;;;;;;;;;;;;;11.70;68.34;99868.03;4970047;28;20372;-91
2022/05/02 04:18:48;;;;;;;;;;;;;;;11.87;68.24;99876.53;4969868;28;19925;-89
2022/05/02 04:21:13;;;;;;;;;;;;;;;11.89;68.47;99872.06;4969644;28;19922;-88
2022/05/02 04:23:48;;;;;;;;;;;;;;;11.87;68.87;99873.88;4968886;28;19937;-90
2022/05/02 04:26:13;;;;;;;;;;;;;;;12.02;68.57;99877.19;4967991;28;20021;-89
2022/05/02 04:28:38;;;;;;;;;;;;;;;12.09;68.43;99873.53;4969292;28;20507;-89
2022/05/02 04:31:04;;;;;;;;;;;;;;;12.21;68.78;99873.31;4969030;28;19982;-90
2022/05/02 04:33:29;;;;;;;;;;;;;;;12.51;68.35;99874.50;4968769;28;19918;-89
2022/05/02 04:35:54;;;;;;;;;;;;;;;12.69;67.63;99875.88;4985336;28;19918;-89
2022/05/02 04:38:20;;;;;;;;;;;;;;;12.56;68.53;99871.75;4969001;28;19914;-87
2022/05/02 04:40:45;;;;;;;;;;;;;;;12.86;68.27;99875.50;4969547;28;19918;-88
2022/05/02 04:43:10;;;;;;;;;;;;;;;13.11;68.36;99882.91;4970609;28;19938;-89
2022/05/02 04:45:36;;;;;;;;;;;;;;;13.33;67.36;99875.41;4969433;28;19918;-88
2022/05/02 04:48:01;;;;;;;;;;;;;;;13.51;66.68;99874.09;4970110;28;20028;-89
2022/05/02 04:50:27;;;;;;;;;;;;;;;13.45;66.36;99874.22;4970592;28;20363;-90
2022/05/02 04:52:53;;;;;;;;;;;;;;;13.55;65.87;99873.09;4970481;28;19918;-88
2022/05/02 04:55:18;;;;;;;;;;;;;;;13.71;65.37;99870.09;4967195;28;19920;-89
2022/05/02 04:57:44;;;;;;;;;;;;;;;13.87;66.05;99868.78;4966928;28;19929;-88
2022/05/02 05:00:09;;;;;;;;;;;;;;;14.06;64.79;99874.47;4969367;28;19928;-88
2022/05/02 05:02:35;;;;;;;;;;;;;;;14.25;63.85;99874.84;4969754;28;20036;-88
2022/05/02 05:05:00;;;;;;;;;;;;;;;14.32;62.52;99883.53;4968634;28;19917;-87
2022/05/02 05:07:25;;;;;;;;;;;;;;;14.37;61.79;99875.44;4969632;28;19922;-89
2022/05/02 05:09:51;;;;;;;;;;;;;;;14.30;61.64;99880.03;4969133;28;19925;-85
2022/05/02 05:12:31;;;;;;;;;;;;;;;14.28;61.81;99881.84;4966576;28;20640;-87
2022/05/02 05:18:18;;;;;;;;;;;;;;;14.18;63.77;99889.22;4968577;28;19941;-88
2022/05/02 05:21:02;;;;;;;;;;;;;;;14.33;63.43;99888.78;4964523;28;19929;-87
2022/05/02 05:23:30;;;;;;;;;;;;;;;14.39;62.74;99890.38;4959426;28;19922;-87
2022/05/02 05:25:58;;;;;;;;;;;;;;;14.36;62.98;99889.63;4966970;28;19975;-88
2022/05/02 05:28:41;;;;;;;;;;;;;;;14.29;63.09;99889.78;4968456;28;19918;-87
2022/05/02 05:31:07;;;;;;;;;;;;;;;14.20;62.97;99878.56;4968900;28;19976;-88
2022/05/02 05:33:32;;;;;;;;;;;;;;;14.15;64.33;99874.22;4969020;28;20364;-90
2022/05/02 05:36:12;;;;;;;;;;;;;;;13.84;64.51;99873.28;4968523;28;19928;-87
2022/05/02 05:38:39;;;;;;;;;;;;;;;13.84;65.90;99882.13;4968441;28;19932;-87
2022/05/02 05:41:22;;;;;;;;;;;;;;;14.03;64.45;99881.66;4968036;28;19922;-86
2022/05/02 05:43:51;;;;;;;;;;;;;;;14.09;64.29;99884.16;4966469;28;19918;-88
2022/05/02 05:46:34;;;;;;;;;;;;;;;14.41;64.64;99893.88;4968406;28;19968;-89
2022/05/02 05:49:03;;;;;;;;;;;;;;;14.27;62.66;99899.56;4968054;28;19914;-87
2022/05/02 05:51:48;;;;;;;;;;;;;;;14.31;63.26;99895.03;4968913;28;19918;-87
2022/05/02 05:54:17;;;;;;;;;;;;;;;14.47;64.32;99893.72;4964954;28;19922;-87
2022/05/02 05:57:01;;;;;;;;;;;;;;;14.55;64.63;99893.50;4967484;28;19928;-86
2022/05/02 05:59:26;;;;;;;;;;;;;;;14.51;62.18;99890.03;4969008;28;19972;-88
2022/05/02 06:01:55;;;;;;;;;;;;;;;14.77;62.02;99888.47;4968010;28;19921;-88
2022/05/02 06:04:22;;;;;;;;;;;;;;;14.91;60.97;99892.53;4968151;28;20368;-88
2022/05/02 06:06:47;;;;;;;;;;;;;;;14.93;60.84;99898.66;4967873;28;20375;-88
2022/05/02 06:09:14;;;;;;;;;;;;;;;14.72;60.74;99892.16;4968879;28;19918;-88
2022/05/02 06:11:40;;;;;;;;;;;;;;;14.51;61.38;99897.16;4966445;28;19921;-88
2022/05/02 06:14:06;;;;;;;;;;;;;;;14.54;61.01;99901.50;4965018;28;19922;-87
2022/05/02 06:19:17;;;;;;;;;;;;;;;14.25;60.51;99905.81;4968434;28;19981;-89
2022/05/02 06:21:43;;;;;;;;;;;;;;;14.37;61.00;99899.31;4968566;28;19922;-88
2022/05/02 06:24:09;;;;;;;;;;;;;;;14.53;60.27;99899.75;4968946;28;20443;-87
2022/05/02 06:26:36;;;;;;;;;;;;;;;14.51;60.68;99902.47;4967526;28;19942;-86
2022/05/02 06:29:02;;;;;;;;;;;;;;;15.02;60.73;99895.72;4968916;28;19988;-87
2022/05/02 06:31:29;;;;;;;;;;;;;;;15.04;59.17;99892.09;4968843;28;19914;-86
2022/05/02 06:33:56;;;;;;;;;;;;;;;15.20;58.65;99894.28;4968904;28;19918;-87
2022/05/02 06:36:24;;;;;;;;;;;;;;;15.12;59.51;99897.19;4967587;28;19922;-87
2022/05/02 06:38:49;;;;;;;;;;;;;;;14.99;60.02;99894.00;4968082;28;19914;-87
2022/05/02 06:41:15;;;;;;;;;;;;;;;15.20;60.51;99896.94;4968915;28;19926;-87
2022/05/02 06:44:00;;;;;;;;;;;;;;;15.39;59.53;99886.59;4968063;28;20385;-85
2022/05/02 06:46:33;;;;;;;;;;;;;;;15.41;57.74;99890.06;4967119;28;20434;-86
2022/05/02 06:49:02;;;;;;;;;;;;;;;15.27;56.99;99885.19;4968538;28;19961;-87
2022/05/02 06:51:30;;;;;;;;;;;;;;;15.39;56.85;99879.50;4970430;28;19929;-87
2022/05/02 06:53:56;;;;;;;;;;;;;;;15.51;56.77;99877.38;4966183;28;20545;-87
2022/05/02 06:56:24;;;;;;;;;;;;;;;15.59;56.23;99880.66;4967496;28;19922;-86
2022/05/02 06:58:50;;;;;;;;;;;;;;;15.70;56.24;99873.19;4968094;28;19941;-87
2022/05/02 07:01:38;;;;;;;;;;;;;;;15.74;55.63;99872.16;4966532;28;20443;-88
2022/05/02 07:04:09;;;;;;;;;;;;;;;15.69;56.23;99875.88;4967175;28;19932;-88
2022/05/02 07:06:37;;;;;;;;;;;;;;;15.47;55.78;99879.25;4966878;28;19989;-88
2022/05/02 07:09:04;;;;;;;;;;;;;;;16.05;56.24;99867.59;4968281;28;19921;-88
2022/05/02 07:11:53;;;;;;;;;;;;;;;16.66;54.74;99869.84;4966007;28;19917;-87
2022/05/02 07:14:47;;;;;;;;;;;;;;;17.09;53.60;99867.38;4968095;28;20475;-88
2022/05/02 07:17:18;;;;;;;;;;;;;;;16.99;52.86;99875.75;4915572;29;19923;-87
2022/05/02 07:19:50;;;;;;;;;;;;;;;17.27;52.40;99872.00;4966978;28;19922;-86
2022/05/02 07:22:21;;;;;;;;;;;;;;;17.65;51.84;99874.88;4968240;28;19926;-87
2022/05/02 07:25:02;;;;;;;;;;;;;;;17.69;50.86;99873.84;4967289;28;19926;-87
2022/05/02 07:27:34;;;;;;;;;;;;;;;17.84;50.13;99866.13;4969155;28;19914;-87
2022/05/02 07:30:00;;;;;;;;;;;;;;;17.27;50.16;99872.00;4962941;28;19924;-86
2022/05/02 07:32:26;;;;;;;;;;;;;;;17.15;50.86;99862.69;4967432;28;19946;-85
2022/05/02 07:34:52;;;;;;;;;;;;;;;17.27;51.12;99855.09;4968279;28;20004;-87
2022/05/02 07:37:20;;;;;;;;;;;;;;;17.54;50.40;99850.47;4970059;28;19918;-88
2022/05/02 07:39:46;;;;;;;;;;;;;;;18.00;48.66;99847.69;4972000;28;19922;-87
2022/05/02 07:42:13;;;;;;;;;;;;;;;17.72;48.13;99841.69;4971150;28;19921;-88
2022/05/02 07:44:39;;;;;;;;;;;;;;;17.50;48.11;99840.84;4973004;28;19918;-87
2022/05/02 07:47:06;;;;;;;;;;;;;;;17.65;47.95;99832.22;4973870;28;19914;-87
2022/05/02 07:49:32;;;;;;;;;;;;;;;17.94;47.06;99830.13;4974151;28;19917;-90
2022/05/02 07:52:00;;;;;;;;;;;;;;;17.84;47.00;99831.44;4975241;28;19922;-88
2022/05/02 07:54:27;;;;;;;;;;;;;;;17.96;46.89;99825.59;4965395;28;20430;-87
2022/05/02 07:56:58;;;;;;;;;;;;;;;18.01;45.86;99820.94;4973871;28;19944;-92
2022/05/02 07:59:26;;;;;;;;;;;;;;;17.92;43.80;99807.13;4962639;28;19925;-88
2022/05/02 08:01:52;;;;;;;;;;;;;;;18.44;42.64;99812.78;4970588;28;19922;-89
2022/05/02 08:04:18;;;;;;;;;;;;;;;18.41;42.92;99808.47;4980643;28;20715;-87
2022/05/02 08:06:46;;;;;;;;;;;;;;;18.31;42.50;99790.28;4970957;28;20463;-87
2022/05/02 08:09:30;;;;;;;;;;;;;;;18.30;43.44;99792.06;4970382;28;19918;-88
2022/05/02 08:11:55;;;;;;;;;;;;;;;17.93;43.74;99780.34;4970226;28;20013;-88
2022/05/02 08:14:24;;;;;;;;;;;;;;;17.79;44.54;99785.41;4970826;28;20001;-88
2022/05/02 08:16:59;;;;;;;;;;;;;;;18.25;44.63;99780.72;4968961;28;19918;-89
2022/05/02 08:19:27;;;;;;;;;;;;;;;17.83;44.35;99771.00;4971548;28;19925;-88
2022/05/02 08:28:31;;;;;;;;;;;;;;;18.49;44.02;99756.50;4969706;28;20345;-88
2022/05/02 08:31:01;;;;;;;;;;;;;;;18.49;45.31;99754.72;4971556;28;19921;-88
2022/05/02 08:33:26;;;;;;;;;;;;;;;18.45;44.83;99754.94;4970662;28;19922;-87
2022/05/02 08:36:02;;;;;;;;;;;;;;;18.51;45.81;99760.84;4973292;28;19937;-86
2022/05/02 08:38:40;;;;;;;;;;;;;;;19.14;44.11;99759.66;4976717;28;19926;-89
2022/05/02 08:41:08;;;;;;;;;;;;;;;19.12;43.23;99762.41;4970470;28;19944;-87
2022/05/02 08:43:52;;;;;;;;;;;;;;;19.37;43.54;99763.88;4968345;28;19985;-88
2022/05/02 08:46:36;;;;;;;;;;;;;;;18.80;44.79;99755.94;4974136;28;19908;-84
2022/05/02 08:52:27;;;;;;;;;;;;;;;19.27;44.21;99743.88;4964049;28;20514;-88
2022/05/02 08:55:05;;;;;;;;;;;;;;;19.54;43.79;99741.63;4948232;29;20350;-90
2022/05/02 08:57:49;;;;;;;;;;;;;;;19.58;43.99;99736.97;4963185;28;19992;-88
2022/05/02 09:00:37;;;;;;;;;;;;;;;19.20;43.28;99743.31;4968791;28;19922;-87
2022/05/02 09:03:05;;;;;;;;;;;;;;;19.68;42.09;99738.22;4967012;28;20372;-89
2022/05/02 09:05:37;;;;;;;;;;;;;;;19.93;43.11;99743.19;4966176;28;20708;-87
2022/05/02 09:08:22;;;;;;;;;;;;;;;19.77;41.36;99736.88;4970035;28;19922;-88
2022/05/02 09:11:07;;;;;;;;;;;;;;;20.09;41.59;99727.16;4962504;28;19918;-87
2022/05/02 09:13:51;;;;;;;;;;;;;;;20.21;42.61;99731.00;4965633;28;19925;-84
2022/05/02 09:16:17;;;;;;;;;;;;;;;20.18;43.44;99729.34;4969367;28;19918;-89
2022/05/02 09:18:46;;;;;;;;;;;;;;;20.54;41.12;99730.97;4972158;28;19917;-86
2022/05/02 09:21:24;;;;;;;;;;;;;;;20.42;40.35;99737.00;4976981;28;19925;-85
2022/05/02 09:24:19;;;;;;;;;;;;;;;20.17;40.12;99732.97;4969561;28;19917;-85
2022/05/02 09:27:07;;;;;;;;;;;;;;;20.42;40.71;99728.97;4969487;28;19921;-86
2022/05/02 09:29:51;;;;;;;;;;;;;;;20.06;40.55;99734.50;4909671;29;19919;-87
2022/05/02 09:32:19;;;;;;;;;;;;;;;20.14;40.19;99738.50;4970206;28;19933;-86
2022/05/02 09:35:04;;;;;;;;;;;;;;;20.23;39.75;99733.59;4970050;28;20008;-86
2022/05/02 09:37:33;;;;;;;;;;;;;;;20.43;41.78;99719.09;4971213;28;20350;-86
2022/05/02 09:40:24;;;;;;;;;;;;;;;20.27;38.05;99727.97;4971342;28;19914;-86
2022/05/02 09:43:03;;;;;;;;;;;;;;;20.61;38.57;99728.78;4966925;28;19976;-87
2022/05/02 09:51:31;;;;;;;;;;;;;;;19.69;38.94;99718.53;4971929;28;19919;-87
2022/05/02 09:54:15;;;;;;;;;;;;;;;19.30;38.52;99720.50;4970975;28;19914;-87
2022/05/02 09:56:47;;;;;;;;;;;;;;;19.28;41.41;99718.88;4984664;28;19922;-87
2022/05/02 09:59:22;;;;;;;;;;;;;;;19.41;40.67;99703.91;4968603;28;19924;-87
2022/05/02 10:02:05;;;;;;;;;;;;;;;19.42;40.62;99700.31;4968263;28;19964;-88
2022/05/02 10:04:40;;;;;;;;;;;;;;;19.34;40.72;99694.50;4968860;28;19914;-87
2022/05/02 10:07:07;;;;;;;;;;;;;;;19.77;40.50;99692.28;4969605;28;19914;-86
2022/05/02 10:09:32;;;;;;;;;;;;;;;20.01;40.76;99678.53;4968775;28;19918;-87
2022/05/02 10:12:04;;;;;;;;;;;;;;;20.24;40.12;99685.28;4969565;28;19929;-86
2022/05/02 10:14:48;;;;;;;;;;;;;;;20.27;40.08;99665.53;4969956;28;19945;-87
2022/05/02 10:17:17;;;;;;;;;;;;;;;20.04;39.58;99673.84;4969135;28;19921;-89
2022/05/02 10:19:46;;;;;;;;;;;;;;;20.52;38.51;99671.22;4970560;28;19917;-87
2022/05/02 10:22:24;;;;;;;;;;;;;;;20.57;39.33;99661.13;4969179;28;19914;-87
2022/05/02 10:24:53;;;;;;;;;;;;;;;20.69;38.68;99661.38;4967307;28;19921;-86
2022/05/02 10:27:41;;;;;;;;;;;;;;;20.40;39.44;99650.47;4969110;28;19957;-89
2022/05/02 10:30:13;;;;;;;;;;;;;;;20.36;38.81;99654.28;4965261;28;19946;-87
2022/05/02 10:32:45;;;;;;;;;;;;;;;20.21;39.61;99640.78;4970659;28;20012;-86
2022/05/02 10:35:12;;;;;;;;;;;;;;;20.04;38.57;99644.41;4971586;28;19918;-85
2022/05/02 10:37:39;;;;;;;;;;;;;;;19.76;38.55;99644.16;4973415;28;19921;-87
2022/05/02 10:40:10;;;;;;;;;;;;;;;20.15;37.94;99642.97;4968987;28;20009;-85
2022/05/02 10:42:35;;;;;;;;;;;;;;;19.90;38.43;99638.09;4969422;28;19918;-87
2022/05/02 10:45:10;;;;;;;;;;;;;;;19.89;38.96;99631.00;4969318;28;19914;-88
2022/05/02 10:47:52;;;;;;;;;;;;;;;19.70;39.46;99631.97;4968639;28;19925;-88
2022/05/02 10:50:17;;;;;;;;;;;;;;;19.94;40.84;99618.22;4968947;28;19920;-87
2022/05/02 10:52:49;;;;;;;;;;;;;;;19.81;39.58;99628.75;4968213;28;19918;-85
2022/05/02 10:55:17;;;;;;;;;;;;;;;20.23;39.22;99619.28;4967290;28;19918;-86
2022/05/02 10:57:50;;;;;;;;;;;;;;;19.92;39.37;99614.78;4967149;28;19918;-85
2022/05/02 11:00:15;;;;;;;;;;;;;;;19.93;39.53;99624.53;4966834;28;19926;-86
2022/05/02 11:02:59;;;;;;;;;;;;;;;19.90;38.73;99616.69;4968095;28;20037;-89
2022/05/02 11:05:31;;;;;;;;;;;;;;;19.92;38.64;99620.97;4969157;28;19961;-84
2022/05/02 11:07:56;;;;;;;;;;;;;;;19.90;39.00;99619.34;4967518;28;19922;-86
2022/05/02 11:10:25;;;;;;;;;;;;;;;19.75;39.62;99621.88;4967990;28;19973;-85
2022/05/02 11:13:03;;;;;;;;;;;;;;;19.81;39.40;99613.53;4967858;28;19944;-87
2022/05/02 11:15:37;;;;;;;;;;;;;;;20.00;39.35;99608.06;4966428;28;19929;-88
2022/05/02 11:18:08;;;;;;;;;;;;;;;20.26;38.94;99612.91;4971331;28;20707;-87
2022/05/02 11:20:59;;;;;;;;;;;;;;;20.08;37.47;99613.00;4971670;28;19969;-85
2022/05/02 11:23:27;;;;;;;;;;;;;;;19.44;38.49;99612.81;4971024;28;20016;-87
2022/05/02 11:26:11;;;;;;;;;;;;;;;19.62;38.34;99618.16;4971967;28;19957;-85
2022/05/02 11:28:48;;;;;;;;;;;;;;;19.26;38.72;99619.13;4971275;28;19969;-87
2022/05/02 11:31:29;;;;;;;;;;;;;;;19.29;39.75;99614.50;4971678;28;19920;-89
2022/05/02 11:34:01;;;;;;;;;;;;;;;19.37;40.84;99614.09;4971832;28;20466;-89
2022/05/02 11:36:28;;;;;;;;;;;;;;;19.67;40.04;99621.44;4972722;28;19925;-90
2022/05/02 11:39:05;;;;;;;;;;;;;;;19.55;40.15;99614.91;4973097;28;19993;-88
2022/05/02 11:41:31;;;;;;;;;;;;;;;19.30;40.44;99613.53;4971278;28;20281;-86
2022/05/02 11:44:11;;;;;;;;;;;;;;;19.22;41.79;99614.91;4973514;28;20411;-86
2022/05/02 11:47:05;;;;;;;;;;;;;;;19.06;41.13;99620.16;4972712;28;20312;-86
2022/05/02 11:49:36;;;;;;;;;;;;;;;19.14;41.97;99620.66;4971362;28;19914;-88
2022/05/02 11:52:06;;;;;;;;;;;;;;;18.92;42.04;99626.19;4972251;28;19921;-87
2022/05/02 11:54:34;;;;;;;;;;;;;;;18.68;41.46;99625.63;4973684;28;19918;-89
2022/05/02 11:57:21;;;;;;;;;;;;;;;18.90;40.54;99630.78;4970225;28;19924;-88
2022/05/02 12:00:05;;;;;;;;;;;;;;;18.66;40.32;99623.00;4972290;28;19992;-89
2022/05/02 12:02:56;;;;;;;;;;;;;;;18.77;40.44;99626.00;4952994;28;19929;-89
2022/05/02 12:05:31;;;;;;;;;;;;;;;18.45;41.74;99629.41;4952533;28;20018;-89
2022/05/02 12:07:58;;;;;;;;;;;;;;;18.50;41.16;99624.69;4968640;28;20343;-89
2022/05/02 12:10:34;;;;;;;;;;;;;;;18.75;40.91;99613.66;4972469;28;20110;-87
2022/05/02 12:13:01;;;;;;;;;;;;;;;18.99;40.41;99608.06;4972384;28;19942;-89
2022/05/02 12:15:27;;;;;;;;;;;;;;;18.80;41.21;99603.63;4972518;28;19922;-88
2022/05/02 12:17:53;;;;;;;;;;;;;;;18.73;41.81;99605.72;4972490;28;19921;-88
2022/05/02 12:20:26;;;;;;;;;;;;;;;18.85;40.79;99606.94;4971240;28;19933;-89
2022/05/02 12:22:56;;;;;;;;;;;;;;;18.85;42.24;99598.94;4971048;28;19925;-88
2022/05/02 12:25:23;;;;;;;;;;;;;;;19.04;40.24;99601.53;4969064;28;19926;-88
2022/05/02 12:27:49;;;;;;;;;;;;;;;18.95;41.95;99599.31;4985438;28;19941;-87
2022/05/02 12:30:14;;;;;;;;;;;;;;;19.16;41.13;99601.84;4970234;28;19922;-87
2022/05/02 12:32:40;;;;;;;;;;;;;;;18.96;41.25;99593.03;4970497;28;19976;-88
2022/05/02 12:35:07;;;;;;;;;;;;;;;18.66;41.12;99588.28;4968684;28;21012;-87
2022/05/02 12:37:33;;;;;;;;;;;;;;;18.95;41.83;99584.16;4970328;28;19925;-88
2022/05/02 12:40:08;;;;;;;;;;;;;;;18.88;40.27;99592.59;4970167;28;19933;-86
2022/05/02 12:42:54;;;;;;;;;;;;;;;19.02;41.21;99587.38;4969964;28;19914;-85
2022/05/02 12:45:21;;;;;;;;;;;;;;;19.20;41.76;99582.91;4970260;28;19954;-85
2022/05/02 12:47:55;;;;;;;;;;;;;;;19.05;40.71;99573.84;4968999;28;19961;-86
2022/05/02 12:50:22;;;;;;;;;;;;;;;19.01;41.52;99569.59;4968815;28;20312;-84
2022/05/02 12:52:49;;;;;;;;;;;;;;;19.17;41.18;99559.00;4966364;28;20021;-84
2022/05/02 12:55:15;;;;;;;;;;;;;;;19.27;41.13;99562.88;4954652;28;19926;-86
2022/05/02 13:00:40;;;;;;;;;;;;;;;19.53;39.42;99560.63;4969857;28;19940;-86
2022/05/02 13:03:17;;;;;;;;;;;;;;;19.32;40.52;99554.63;4969804;28;19929;-87
2022/05/02 13:05:46;;;;;;;;;;;;;;;19.22;40.72;99548.06;4970270;28;19918;-89
2022/05/02 13:08:19;;;;;;;;;;;;;;;19.26;39.60;99544.25;4969308;28;20392;-89
2022/05/02 13:10:46;;;;;;;;;;;;;;;19.29;40.14;99544.97;4969673;28;19918;-89
2022/05/02 13:13:12;;;;;;;;;;;;;;;19.09;39.25;99550.50;4969618;28;19928;-87
2022/05/02 13:15:42;;;;;;;;;;;;;;;19.45;40.71;99547.69;4968946;28;19932;-87
2022/05/02 13:18:14;;;;;;;;;;;;;;;19.47;40.87;99543.09;4967900;28;19922;-86
2022/05/02 13:20:41;;;;;;;;;;;;;;;19.79;41.02;99550.38;4968874;28;20675;-86
2022/05/02 13:23:08;;;;;;;;;;;;;;;19.80;39.80;99544.03;4969139;28;20322;-86
2022/05/02 13:25:52;;;;;;;;;;;;;;;19.76;39.05;99532.63;4969734;28;19922;-86
2022/05/02 13:28:23;;;;;;;;;;;;;;;20.11;39.32;99539.63;4969035;28;19929;-86
2022/05/02 13:30:52;;;;;;;;;;;;;;;20.03;39.76;99532.94;4969622;28;20731;-86